createdAt,value
2023-02-27T00:00:18.791Z,3.01
2023-02-27T00:02:49.605Z,2.99
2023-02-27T00:05:18.274Z,2.96
2023-02-27T00:07:46.528Z,2.90
2023-02-27T00:10:16.465Z,2.86
2023-02-27T00:12:45.966Z,2.83
2023-02-27T00:15:16.244Z,2.81
2023-02-27T00:17:47.704Z,2.78
2023-02-27T00:20:16.985Z,2.77
2023-02-27T00:22:46.547Z,2.76
2023-02-27T00:25:24.862Z,2.75
2023-02-27T00:27:56.934Z,2.72
2023-02-27T00:30:26.737Z,2.68
2023-02-27T00:32:55.287Z,2.67
2023-02-27T00:35:23.483Z,2.64
2023-02-27T00:37:57.169Z,2.60
2023-02-27T00:40:25.522Z,2.55
2023-02-27T00:42:54.342Z,2.53
2023-02-27T00:45:22.578Z,2.51
2023-02-27T00:47:50.743Z,2.51
2023-02-27T00:50:19.058Z,2.50
2023-02-27T00:52:47.568Z,2.46
2023-02-27T00:55:16.022Z,2.42
2023-02-27T00:57:44.914Z,2.36
2023-02-27T01:00:15.446Z,2.30
2023-02-27T01:02:46.616Z,2.25
2023-02-27T01:05:15.484Z,2.22
2023-02-27T01:07:43.814Z,2.15
2023-02-27T01:10:12.196Z,2.10
2023-02-27T01:12:42.314Z,2.06
2023-02-27T01:15:11.131Z,2.02
2023-02-27T01:17:41.937Z,1.98
2023-02-27T01:20:11.927Z,1.95
2023-02-27T01:22:40.271Z,1.93
2023-02-27T01:25:13.142Z,1.92
2023-02-27T01:27:41.370Z,1.91
2023-02-27T01:30:11.603Z,1.89
2023-02-27T01:32:41.390Z,1.87
2023-02-27T01:35:09.939Z,1.85
2023-02-27T01:37:39.741Z,1.81
2023-02-27T01:40:09.139Z,1.76
2023-02-27T01:42:37.765Z,1.73
2023-02-27T01:45:12.435Z,1.72
2023-02-27T01:47:46.115Z,1.71
2023-02-27T01:50:14.541Z,1.68
2023-02-27T01:52:44.979Z,1.65
2023-02-27T01:55:14.297Z,1.61
2023-02-27T01:57:43.420Z,1.58
2023-02-27T02:00:12.961Z,1.56
2023-02-27T02:02:44.742Z,1.52
2023-02-27T02:05:15.304Z,1.50
2023-02-27T02:07:43.946Z,1.50
2023-02-27T02:10:13.227Z,1.48
2023-02-27T02:12:41.573Z,1.49
2023-02-27T02:15:12.952Z,1.52
2023-02-27T02:17:45.517Z,1.53
2023-02-27T02:20:38.893Z,1.54
2023-02-27T02:23:35.170Z,1.54
2023-02-27T02:26:18.640Z,1.54
2023-02-27T02:28:52.075Z,1.51
2023-02-27T02:32:02.017Z,1.48
2023-02-27T02:34:49.554Z,1.42
2023-02-27T02:37:31.246Z,1.38
2023-02-27T02:40:08.480Z,1.36
2023-02-27T02:42:43.903Z,1.35
2023-02-27T02:45:44.511Z,1.34
2023-02-27T02:48:37.459Z,1.35
2023-02-27T02:51:44.520Z,1.31
2023-02-27T02:54:16.469Z,1.28
2023-02-27T02:56:54.728Z,1.27
2023-02-27T02:59:32.896Z,1.27
2023-02-27T03:02:04.014Z,1.26
2023-02-27T03:04:39.914Z,1.24
2023-02-27T03:07:31.545Z,1.23
2023-02-27T03:10:22.883Z,1.21
2023-02-27T03:12:57.788Z,1.19
2023-02-27T03:15:30.713Z,1.18
2023-02-27T03:18:07.375Z,1.14
2023-02-27T03:20:41.587Z,1.11
2023-02-27T03:23:12.482Z,1.11
2023-02-27T03:25:46.310Z,1.10
2023-02-27T03:28:18.858Z,1.10
2023-02-27T03:31:10.345Z,1.08
2023-02-27T03:33:46.087Z,1.07
2023-02-27T03:36:43.874Z,1.07
2023-02-27T03:39:16.889Z,1.07
2023-02-27T03:41:54.518Z,1.07
2023-02-27T03:44:37.574Z,1.04
2023-02-27T03:47:06.032Z,1.00
2023-02-27T03:49:34.812Z,0.94
2023-02-27T03:52:04.082Z,0.92
2023-02-27T03:54:47.177Z,0.92
2023-02-27T03:57:15.410Z,0.90
2023-02-27T03:59:43.754Z,0.89
2023-02-27T04:02:11.961Z,0.90
2023-02-27T04:04:40.698Z,0.91
2023-02-27T04:07:28.955Z,0.91
2023-02-27T04:10:14.598Z,0.91
2023-02-27T04:13:07.966Z,0.93
2023-02-27T04:15:48.464Z,0.95
2023-02-27T04:18:19.381Z,0.94
2023-02-27T04:20:50.235Z,0.94
2023-02-27T04:23:35.706Z,0.94
2023-02-27T04:26:33.735Z,0.92
2023-02-27T04:29:10.972Z,0.88
2023-02-27T04:31:50.566Z,0.85
2023-02-27T04:34:24.498Z,0.83
2023-02-27T04:36:59.219Z,0.81
2023-02-27T04:39:53.576Z,0.79
2023-02-27T04:42:25.801Z,0.79
2023-02-27T04:45:00.786Z,0.79
2023-02-27T04:47:32.842Z,0.80
2023-02-27T04:50:07.642Z,0.83
2023-02-27T04:52:41.642Z,0.86
2023-02-27T04:55:38.864Z,0.85
2023-02-27T04:58:12.894Z,0.86
2023-02-27T05:00:42.235Z,0.86
2023-02-27T05:03:16.714Z,0.84
2023-02-27T05:05:45.060Z,0.82
2023-02-27T05:08:44.448Z,0.81
2023-02-27T05:11:21.907Z,0.82
2023-02-27T05:13:53.975Z,0.82
2023-02-27T05:16:27.161Z,0.80
2023-02-27T05:18:56.476Z,0.79
2023-02-27T05:21:39.138Z,0.78
2023-02-27T05:24:26.321Z,0.77
2023-02-27T05:27:07.176Z,0.78
2023-02-27T05:29:41.600Z,0.77
2023-02-27T05:32:46.882Z,0.80
2023-02-27T05:35:32.376Z,0.85
2023-02-27T05:38:10.336Z,0.88
2023-02-27T05:40:42.523Z,0.88
2023-02-27T05:43:17.235Z,0.88
2023-02-27T05:45:48.386Z,0.91
2023-02-27T05:48:26.950Z,0.93
2023-02-27T05:50:55.922Z,0.94
2023-02-27T05:53:29.596Z,0.95
2023-02-27T05:55:59.502Z,0.97
2023-02-27T05:58:31.645Z,1.01
2023-02-27T06:01:02.127Z,1.04
2023-02-27T06:03:32.407Z,1.06
2023-02-27T06:06:03.578Z,1.09
2023-02-27T06:08:32.573Z,1.12
2023-02-27T06:11:00.881Z,1.16
2023-02-27T06:13:29.732Z,1.19
2023-02-27T06:15:58.046Z,1.21
2023-02-27T06:18:26.251Z,1.24
2023-02-27T06:20:54.964Z,1.28
2023-02-27T06:23:25.526Z,1.29
2023-02-27T06:25:54.134Z,1.30
2023-02-27T06:28:22.363Z,1.30
2023-02-27T06:30:55.173Z,1.30
2023-02-27T06:33:26.137Z,1.29
2023-02-27T06:35:54.793Z,1.31
2023-02-27T06:38:22.968Z,1.34
2023-02-27T06:40:51.738Z,1.35
2023-02-27T06:43:23.288Z,1.33
2023-02-27T06:45:56.088Z,1.30
2023-02-27T06:48:24.793Z,1.29
2023-02-27T06:50:53.964Z,1.27
2023-02-27T06:53:23.096Z,1.27
2023-02-27T06:55:51.727Z,1.27
2023-02-27T06:58:22.341Z,1.27
2023-02-27T07:00:50.720Z,1.24
2023-02-27T07:03:18.897Z,1.20
2023-02-27T07:05:50.657Z,1.18
2023-02-27T07:08:19.706Z,1.16
2023-02-27T07:10:50.313Z,1.15
2023-02-27T07:13:19.658Z,1.13
2023-02-27T07:15:49.122Z,1.11
2023-02-27T07:18:17.488Z,1.11
2023-02-27T07:20:45.834Z,1.12
2023-02-27T07:23:14.097Z,1.12
2023-02-27T07:25:42.842Z,1.14
2023-02-27T07:28:11.660Z,1.16
2023-02-27T07:30:40.001Z,1.19
2023-02-27T07:33:08.926Z,1.20
2023-02-27T07:35:37.839Z,1.24
2023-02-27T07:38:06.127Z,1.27
2023-02-27T07:40:34.656Z,1.30
2023-02-27T07:43:05.568Z,1.32
2023-02-27T07:45:35.543Z,1.33
2023-02-27T07:48:04.895Z,1.31
2023-02-27T07:50:33.981Z,1.29
2023-02-27T07:53:02.344Z,1.30
2023-02-27T07:55:31.527Z,1.30
2023-02-27T07:58:02.820Z,1.29
2023-02-27T08:00:31.437Z,1.30
2023-02-27T08:03:00.531Z,1.32
2023-02-27T08:05:32.900Z,1.34
2023-02-27T08:08:01.427Z,1.37
2023-02-27T08:10:36.622Z,1.37
2023-02-27T08:13:05.252Z,1.38
2023-02-27T08:15:34.167Z,1.38
2023-02-27T08:18:02.415Z,1.40
2023-02-27T08:20:32.450Z,1.42
2023-02-27T08:23:00.627Z,1.46
2023-02-27T08:25:30.396Z,1.50
2023-02-27T08:27:58.563Z,1.51
2023-02-27T08:30:26.793Z,1.53
2023-02-27T08:32:56.016Z,1.54
2023-02-27T08:35:25.410Z,1.58
2023-02-27T08:37:53.725Z,1.62
2023-02-27T08:40:21.944Z,1.66
2023-02-27T08:42:51.960Z,1.71
2023-02-27T08:45:21.053Z,1.77
2023-02-27T08:47:49.882Z,1.85
2023-02-27T08:50:18.335Z,1.92
2023-02-27T08:52:47.086Z,2.00
2023-02-27T08:55:15.549Z,2.08
2023-02-27T08:57:43.910Z,2.15
2023-02-27T09:00:14.849Z,2.23
2023-02-27T09:02:43.641Z,2.34
2023-02-27T09:05:11.957Z,2.45
2023-02-27T09:07:40.317Z,2.57
2023-02-27T09:10:09.334Z,2.69
2023-02-27T09:12:38.404Z,2.81
2023-02-27T09:15:12.322Z,2.95
2023-02-27T09:17:42.310Z,3.12
2023-02-27T09:20:12.486Z,3.22
2023-02-27T09:22:41.876Z,3.29
2023-02-27T09:25:12.310Z,3.37
2023-02-27T09:27:41.460Z,3.47
2023-02-27T09:30:11.276Z,3.55
2023-02-27T09:32:40.185Z,3.62
2023-02-27T09:35:09.586Z,3.70
2023-02-27T09:37:38.518Z,3.79
2023-02-27T09:40:08.001Z,3.90
2023-02-27T09:42:42.340Z,4.05
2023-02-27T09:45:18.170Z,4.16
2023-02-27T09:47:50.811Z,4.23
2023-02-27T09:50:45.799Z,4.33
2023-02-27T09:53:29.970Z,4.45
2023-02-27T09:56:29.232Z,4.52
2023-02-27T09:59:29.757Z,4.56
2023-02-27T10:02:21.963Z,4.59
2023-02-27T10:05:20.108Z,4.61
2023-02-27T10:07:56.737Z,4.62
2023-02-27T10:10:35.524Z,4.62
2023-02-27T10:13:45.582Z,4.61
2023-02-27T10:16:15.662Z,4.67
2023-02-27T10:18:48.359Z,4.69
2023-02-27T10:21:21.020Z,4.64
2023-02-27T10:23:55.358Z,4.65
2023-02-27T10:26:26.735Z,4.70
2023-02-27T10:28:55.044Z,4.76
2023-02-27T10:31:26.775Z,4.81
2023-02-27T10:33:56.694Z,4.82
2023-02-27T10:36:33.670Z,4.82
2023-02-27T10:39:07.300Z,4.78
2023-02-27T10:41:36.285Z,4.74
2023-02-27T10:44:05.181Z,4.70
2023-02-27T10:46:35.718Z,4.65
2023-02-27T10:49:16.033Z,4.61
2023-02-27T10:51:48.339Z,4.58
2023-02-27T10:54:21.406Z,4.56
2023-02-27T10:56:55.259Z,4.54
2023-02-27T10:59:27.228Z,4.53
2023-02-27T11:01:57.385Z,4.47
2023-02-27T11:04:26.953Z,4.38
2023-02-27T11:06:55.399Z,4.31
2023-02-27T11:09:33.162Z,4.28
2023-02-27T11:12:29.640Z,4.25
2023-02-27T11:15:02.198Z,4.23
2023-02-27T11:17:34.329Z,4.24
2023-02-27T11:20:08.526Z,4.23
2023-02-27T11:22:37.284Z,4.24
2023-02-27T11:25:22.512Z,4.25
2023-02-27T11:27:52.370Z,4.24
2023-02-27T11:30:32.057Z,4.24
2023-02-27T11:33:01.326Z,4.27
2023-02-27T11:35:39.370Z,4.29
2023-02-27T11:38:29.156Z,4.32
2023-02-27T11:41:01.084Z,4.28
2023-02-27T11:43:51.441Z,4.23
2023-02-27T11:46:47.603Z,4.18
2023-02-27T11:49:17.762Z,4.18
2023-02-27T11:52:10.907Z,4.19
2023-02-27T11:54:42.892Z,4.18
2023-02-27T11:57:34.192Z,4.16
2023-02-27T12:00:28.545Z,4.13
2023-02-27T12:02:59.265Z,4.09
2023-02-27T12:05:33.495Z,4.04
2023-02-27T12:08:12.109Z,4.02
2023-02-27T12:11:14.496Z,4.00
2023-02-27T12:13:47.303Z,4.01
2023-02-27T12:16:35.026Z,4.00
2023-02-27T12:19:23.219Z,3.98
2023-02-27T12:21:54.494Z,3.97
2023-02-27T12:24:40.499Z,3.91
2023-02-27T12:27:18.599Z,3.86
2023-02-27T12:29:59.060Z,3.85
2023-02-27T12:32:42.569Z,3.74
2023-02-27T12:35:18.602Z,3.63
2023-02-27T12:37:47.261Z,3.53
2023-02-27T12:40:17.564Z,3.45
2023-02-27T12:42:55.721Z,3.37
2023-02-27T12:45:29.806Z,3.33
2023-02-27T12:48:09.589Z,3.28
2023-02-27T12:50:54.320Z,3.23
2023-02-27T12:53:42.805Z,3.17
2023-02-27T12:56:19.655Z,3.12
2023-02-27T12:59:23.347Z,3.12
2023-02-27T13:02:14.479Z,3.11
2023-02-27T13:04:48.166Z,3.08
2023-02-27T13:07:37.531Z,3.04
2023-02-27T13:10:41.419Z,3.00
2023-02-27T13:13:18.516Z,2.94
2023-02-27T13:15:55.931Z,2.89
2023-02-27T13:18:50.674Z,2.87
2023-02-27T13:21:49.313Z,2.83
2023-02-27T13:24:28.707Z,2.79
2023-02-27T13:27:02.862Z,2.75
2023-02-27T13:29:41.132Z,2.72
2023-02-27T13:32:44.524Z,2.70
2023-02-27T13:35:50.827Z,2.67
2023-02-27T13:38:50.342Z,2.65
2023-02-27T13:41:21.755Z,2.65
2023-02-27T13:43:53.234Z,2.64
2023-02-27T13:46:29.039Z,2.63
2023-02-27T13:49:09.265Z,2.63
2023-02-27T13:51:39.701Z,2.61
2023-02-27T13:54:14.325Z,2.61
2023-02-27T13:56:46.983Z,2.60
2023-02-27T13:59:23.900Z,2.59
2023-02-27T14:02:17.030Z,2.55
2023-02-27T14:04:54.815Z,2.52
2023-02-27T14:07:30.179Z,2.53
2023-02-27T14:10:08.893Z,2.54
2023-02-27T14:12:47.864Z,2.57
2023-02-27T14:15:17.846Z,2.59
2023-02-27T14:17:49.626Z,2.58
2023-02-27T14:20:29.077Z,2.58
2023-02-27T14:23:18.548Z,2.57
2023-02-27T14:25:50.055Z,2.55
2023-02-27T14:28:22.293Z,2.51
2023-02-27T14:31:27.606Z,2.47
2023-02-27T14:33:56.431Z,2.46
2023-02-27T14:36:54.881Z,2.45
2023-02-27T14:39:31.326Z,2.44
2023-02-27T14:42:19.115Z,2.41
2023-02-27T14:44:48.049Z,2.38
2023-02-27T14:47:20.090Z,2.36
2023-02-27T14:49:58.269Z,2.34
2023-02-27T14:52:29.836Z,2.31
2023-02-27T14:55:18.588Z,2.28
2023-02-27T14:58:01.692Z,2.26
2023-02-27T15:00:33.342Z,2.24
2023-02-27T15:03:17.982Z,2.21
2023-02-27T15:05:48.863Z,2.19
2023-02-27T15:08:21.612Z,2.17
2023-02-27T15:10:54.495Z,2.17
2023-02-27T15:13:26.020Z,2.15
2023-02-27T15:16:38.126Z,2.12
2023-02-27T15:19:18.675Z,2.09
2023-02-27T15:22:02.238Z,2.06
2023-02-27T15:24:48.880Z,1.99
2023-02-27T15:27:21.153Z,1.93
2023-02-27T15:29:52.103Z,1.89
2023-02-27T15:32:34.216Z,1.81
2023-02-27T15:35:21.115Z,1.76
2023-02-27T15:37:59.093Z,1.73
2023-02-27T15:40:31.646Z,1.72
2023-02-27T15:43:00.252Z,1.69
2023-02-27T15:45:32.100Z,1.63
2023-02-27T15:48:00.419Z,1.57
2023-02-27T15:53:29.968Z,1.49
2023-02-27T15:55:59.933Z,1.49
2023-02-27T15:58:29.630Z,1.50
2023-02-27T16:01:03.004Z,1.50
2023-02-27T16:03:37.536Z,1.49
2023-02-27T16:06:20.197Z,1.47
2023-02-27T16:08:58.635Z,1.47
2023-02-27T16:11:34.300Z,1.45
2023-02-27T16:14:02.979Z,1.42
2023-02-27T16:16:36.209Z,1.40
2023-02-27T16:19:27.281Z,1.38
2023-02-27T16:22:06.511Z,1.39
2023-02-27T16:24:37.593Z,1.38
2023-02-27T16:27:07.424Z,1.38
2023-02-27T16:29:45.031Z,1.35
2023-02-27T16:32:29.545Z,1.32
2023-02-27T16:35:06.702Z,1.32
2023-02-27T16:37:35.941Z,1.31
2023-02-27T16:40:25.925Z,1.29
2023-02-27T16:42:57.713Z,1.28
2023-02-27T16:45:27.919Z,1.27
2023-02-27T16:47:59.995Z,1.24
2023-02-27T16:50:30.875Z,1.24
2023-02-27T16:52:59.889Z,1.23
2023-02-27T16:55:33.795Z,1.22
2023-02-27T16:58:02.656Z,1.17
2023-02-27T17:00:31.441Z,1.13
2023-02-27T17:03:01.383Z,1.10
2023-02-27T17:05:30.546Z,1.10
2023-02-27T17:08:01.859Z,1.11
2023-02-27T17:10:30.577Z,1.11
2023-02-27T17:12:58.751Z,1.11
2023-02-27T17:15:30.198Z,1.10
2023-02-27T17:18:00.188Z,1.09
2023-02-27T17:20:30.341Z,1.05
2023-02-27T17:22:59.964Z,1.02
2023-02-27T17:25:31.457Z,1.01
2023-02-27T17:28:00.235Z,1.00
2023-02-27T17:30:29.173Z,0.98
2023-02-27T17:32:59.916Z,0.96
2023-02-27T17:35:33.517Z,0.93
2023-02-27T17:38:02.930Z,0.93
2023-02-27T17:40:37.843Z,0.92
2023-02-27T17:43:06.913Z,0.91
2023-02-27T17:45:35.826Z,0.85
2023-02-27T17:48:04.578Z,0.84
2023-02-27T17:50:34.751Z,0.85
2023-02-27T17:53:03.177Z,0.84
2023-02-27T17:55:32.072Z,0.81
2023-02-27T17:58:02.634Z,0.79
2023-02-27T18:00:31.857Z,0.77
2023-02-27T18:03:00.623Z,0.77
2023-02-27T18:05:29.012Z,0.78
2023-02-27T18:07:59.121Z,0.77
2023-02-27T18:10:31.753Z,0.75
2023-02-27T18:13:02.175Z,0.72
2023-02-27T18:15:34.433Z,0.71
2023-02-27T18:18:03.918Z,0.68
2023-02-27T18:20:32.324Z,0.65
2023-02-27T18:23:00.851Z,0.63
2023-02-27T18:25:30.015Z,0.63
2023-02-27T18:27:58.326Z,0.65
2023-02-27T18:30:30.932Z,0.66
2023-02-27T18:32:59.552Z,0.68
2023-02-27T18:35:28.253Z,0.70
2023-02-27T18:38:01.228Z,0.72
2023-02-27T18:40:34.272Z,0.70
2023-02-27T18:43:02.756Z,0.71
2023-02-27T18:45:32.070Z,0.70
2023-02-27T18:48:00.525Z,0.69
2023-02-27T18:50:29.683Z,0.66
2023-02-27T18:52:59.331Z,0.63
2023-02-27T18:55:28.337Z,0.59
2023-02-27T18:57:57.582Z,0.57
2023-02-27T19:00:26.266Z,0.55
2023-02-27T19:02:54.765Z,0.52
2023-02-27T19:05:23.469Z,0.47
2023-02-27T19:07:57.313Z,0.44
2023-02-27T19:10:26.487Z,0.41
2023-02-27T19:12:54.669Z,0.39
2023-02-27T19:15:35.673Z,0.36
2023-02-27T19:18:05.003Z,0.33
2023-02-27T19:20:36.627Z,0.33
2023-02-27T19:23:06.799Z,0.31
2023-02-27T19:25:35.957Z,0.30
2023-02-27T19:28:05.413Z,0.29
2023-02-27T19:30:33.971Z,0.29
2023-02-27T19:33:02.447Z,0.29
2023-02-27T19:35:31.577Z,0.28
2023-02-27T19:37:59.970Z,0.28
2023-02-27T19:40:31.973Z,0.27
2023-02-27T19:43:00.190Z,0.27
2023-02-27T19:45:29.561Z,0.26
2023-02-27T19:47:58.948Z,0.25
2023-02-27T19:50:29.346Z,0.26
2023-02-27T19:52:58.776Z,0.28
2023-02-27T19:55:27.833Z,0.29
2023-02-27T19:57:56.002Z,0.28
2023-02-27T20:00:25.300Z,0.27
2023-02-27T20:02:57.692Z,0.25
2023-02-27T20:05:26.151Z,0.23
2023-02-27T20:07:54.563Z,0.23
2023-02-27T20:10:24.820Z,0.23
2023-02-27T20:12:53.757Z,0.22
2023-02-27T20:15:22.731Z,0.21
2023-02-27T20:17:51.799Z,0.19
2023-02-27T20:20:20.087Z,0.18
2023-02-27T20:22:50.437Z,0.15
2023-02-27T20:25:19.142Z,0.10
2023-02-27T20:27:47.868Z,0.08
2023-02-27T20:30:16.123Z,0.06
2023-02-27T20:32:46.389Z,0.04
2023-02-27T20:35:15.720Z,0.01
2023-02-27T20:37:44.370Z,-0.03
2023-02-27T20:40:13.003Z,-0.06
2023-02-27T20:42:41.257Z,-0.08
2023-02-27T20:45:10.629Z,-0.10
2023-02-27T20:47:39.525Z,-0.11
2023-02-27T20:50:08.313Z,-0.14
2023-02-27T20:52:42.589Z,-0.17
2023-02-27T20:55:15.315Z,-0.18
2023-02-27T20:57:43.723Z,-0.18
2023-02-27T21:00:15.848Z,-0.20
2023-02-27T21:02:48.423Z,-0.21
2023-02-27T21:05:18.152Z,-0.22
2023-02-27T21:07:51.176Z,-0.24
2023-02-27T21:10:19.609Z,-0.25
2023-02-27T21:12:53.388Z,-0.27
2023-02-27T21:15:26.235Z,-0.29
2023-02-27T21:17:55.385Z,-0.30
2023-02-27T21:20:26.774Z,-0.30
2023-02-27T21:22:55.932Z,-0.30
2023-02-27T21:25:27.325Z,-0.30
2023-02-27T21:28:02.313Z,-0.31
2023-02-27T21:30:31.164Z,-0.31
2023-02-27T21:33:03.389Z,-0.30
2023-02-27T21:35:32.985Z,-0.31
2023-02-27T21:38:01.738Z,-0.31
2023-02-27T21:40:29.990Z,-0.31
2023-02-27T21:42:58.324Z,-0.31
2023-02-27T21:45:26.549Z,-0.31
2023-02-27T21:47:55.349Z,-0.31
2023-02-27T21:50:24.486Z,-0.30
2023-02-27T21:52:53.489Z,-0.32
2023-02-27T21:55:21.706Z,-0.32
2023-02-27T21:57:49.974Z,-0.31
2023-02-27T22:00:19.567Z,-0.32
2023-02-27T22:02:47.950Z,-0.32
2023-02-27T22:05:16.333Z,-0.34
2023-02-27T22:07:44.638Z,-0.35
2023-02-27T22:10:12.948Z,-0.35
2023-02-27T22:12:43.182Z,-0.37
2023-02-27T22:15:11.943Z,-0.37
2023-02-27T22:17:40.611Z,-0.37
2023-02-27T22:20:09.988Z,-0.37
2023-02-27T22:22:41.873Z,-0.36
2023-02-27T22:25:10.150Z,-0.35
2023-02-27T22:27:38.490Z,-0.36
2023-02-27T22:30:07.518Z,-0.37
2023-02-27T22:32:39.013Z,-0.37
2023-02-27T22:35:08.073Z,-0.40
2023-02-27T22:37:36.915Z,-0.40
2023-02-27T22:40:05.618Z,-0.40
2023-02-27T22:42:34.067Z,-0.42
2023-02-27T22:45:03.292Z,-0.45
2023-02-27T22:47:32.503Z,-0.48
2023-02-27T22:50:00.791Z,-0.50
2023-02-27T22:52:30.511Z,-0.51
2023-02-27T22:55:05.019Z,-0.53
2023-02-27T22:57:34.769Z,-0.54
2023-02-27T23:00:06.236Z,-0.56
2023-02-27T23:02:34.510Z,-0.56
2023-02-27T23:05:02.651Z,-0.56
2023-02-27T23:07:31.150Z,-0.56
2023-02-27T23:09:59.471Z,-0.55
2023-02-27T23:12:28.365Z,-0.55
2023-02-27T23:14:57.494Z,-0.56
2023-02-27T23:17:25.795Z,-0.55
2023-02-27T23:19:53.937Z,-0.55
2023-02-27T23:22:23.470Z,-0.56
2023-02-27T23:24:51.891Z,-0.57
2023-02-27T23:27:26.095Z,-0.60
2023-02-27T23:29:55.364Z,-0.66
2023-02-27T23:32:25.178Z,-0.70
2023-02-27T23:34:54.417Z,-0.71
2023-02-27T23:37:22.742Z,-0.72
2023-02-27T23:39:51.952Z,-0.72
2023-02-27T23:42:20.337Z,-0.73
2023-02-27T23:44:48.602Z,-0.73
2023-02-27T23:47:35.258Z,-0.73
2023-02-27T23:50:03.689Z,-0.73
2023-02-27T23:52:32.104Z,-0.74
2023-02-27T23:55:00.303Z,-0.76
2023-02-27T23:57:29.060Z,-0.76
2023-02-27T23:59:57.629Z,-0.76
